Time;durP1;ratioP1;P1;durP2;ratioP2;P2;SDS_P1;SDS_P2;PMS_P1;PMS_P2;Temp;Humidity;BMP_temperature;BMP_pressure;BME280_temperature;BME280_humidity;BME280_pressure;Samples;Min_cycle;Max_cycle;Signal;HPM_P1;HPM_P2
2023/04/22 00:02:16;;;;;;;;;;;11.00;99.90;;;;;;5016160;28;19968;-88
2023/04/22 00:04:45;;;;;;;;;;;11.80;99.90;;;;;;5013639;28;19926;-87
2023/04/22 00:07:11;;;;;;;;;;;10.50;99.90;;;;;;5033144;28;19925;-89
2023/04/22 00:09:39;;;;;;;;;;;13.00;99.90;;;;;;5017743;28;20234;-88
2023/04/22 00:12:10;;;;;;;;;;;11.80;99.90;;;;;;5018604;28;19941;-87
2023/04/22 00:14:38;;;;;;;;;;;11.60;99.90;;;;;;5012650;28;19925;-89
2023/04/22 00:17:09;;;;;;;;;;;11.60;99.90;;;;;;5014520;28;19990;-88
2023/04/22 00:19:36;;;;;;;;;;;11.60;99.90;;;;;;5031352;28;19929;-87
2023/04/22 00:22:02;;;;;;;;;;;11.80;99.90;;;;;;5005563;28;19925;-89
2023/04/22 00:24:28;;;;;;;;;;;11.60;99.90;;;;;;5010523;28;19929;-91
2023/04/22 00:26:56;;;;;;;;;;;11.60;99.90;;;;;;5011166;28;19986;-88
2023/04/22 00:29:21;;;;;;;;;;;11.60;99.90;;;;;;4996273;28;19936;-88
2023/04/22 00:31:47;;;;;;;;;;;11.50;99.90;;;;;;5016012;28;19925;-88
2023/04/22 00:34:13;;;;;;;;;;;12.40;99.90;;;;;;5019105;28;19929;-88
2023/04/22 00:36:41;;;;;;;;;;;11.50;99.90;;;;;;4997908;28;19925;-88
2023/04/22 00:39:09;;;;;;;;;;;11.40;99.90;;;;;;5009373;28;20387;-88
2023/04/22 00:41:35;;;;;;;;;;;11.40;99.90;;;;;;5042692;28;20300;-89
2023/04/22 00:44:09;;;;;;;;;;;11.60;99.90;;;;;;5009051;28;19933;-88
2023/04/22 00:46:36;;;;;;;;;;;11.40;99.90;;;;;;5005447;28;19952;-88
2023/04/22 00:49:01;;;;;;;;;;;11.20;99.90;;;;;;5010970;28;19971;-87
2023/04/22 00:51:30;;;;;;;;;;;11.10;99.90;;;;;;5001654;28;19929;-88
2023/04/22 00:54:03;;;;;;;;;;;10.90;99.90;;;;;;5004618;28;19976;-88
2023/04/22 00:56:40;;;;;;;;;;;11.00;99.90;;;;;;5026486;28;19972;-88
2023/04/22 00:59:10;;;;;;;;;;;11.00;99.90;;;;;;5021803;28;20031;-89
2023/04/22 01:01:36;;;;;;;;;;;11.20;99.90;;;;;;5023494;28;19960;-88
2023/04/22 01:04:02;;;;;;;;;;;10.90;99.90;;;;;;5013872;28;19926;-88
2023/04/22 01:06:28;;;;;;;;;;;10.60;99.90;;;;;;5013375;28;19931;-88
2023/04/22 01:08:55;;;;;;;;;;;10.90;99.90;;;;;;5022216;28;19932;-88
2023/04/22 01:11:22;;;;;;;;;;;11.10;99.90;;;;;;5013092;28;20058;-88
2023/04/22 01:13:53;;;;;;;;;;;10.90;99.90;;;;;;5007969;28;19956;-88
2023/04/22 01:16:24;;;;;;;;;;;10.90;99.90;;;;;;5005825;28;19925;-88
2023/04/22 01:18:53;;;;;;;;;;;10.70;99.90;;;;;;5038503;28;19969;-88
2023/04/22 01:21:19;;;;;;;;;;;10.60;99.90;;;;;;5008421;28;19925;-89
2023/04/22 01:23:45;;;;;;;;;;;10.70;99.90;;;;;;5016541;28;19979;-88
2023/04/22 01:26:13;;;;;;;;;;;10.70;99.90;;;;;;5013743;28;20284;-88
2023/04/22 01:28:39;;;;;;;;;;;10.70;99.90;;;;;;5003525;28;19925;-88
2023/04/22 01:31:08;;;;;;;;;;;10.80;99.90;;;;;;5010887;28;19925;-88
2023/04/22 01:33:34;;;;;;;;;;;10.90;99.90;;;;;;5021066;28;19926;-88
2023/04/22 01:36:06;;;;;;;;;;;11.20;99.90;;;;;;5038098;28;19932;-88
2023/04/22 01:38:33;;;;;;;;;;;10.20;99.90;;;;;;5038057;28;19929;-88
2023/04/22 01:41:01;;;;;;;;;;;11.00;99.90;;;;;;5036553;28;19936;-88
2023/04/22 01:43:26;;;;;;;;;;;10.70;99.90;;;;;;5021672;28;19945;-88
2023/04/22 01:45:52;;;;;;;;;;;10.80;99.90;;;;;;5019224;28;19952;-87
2023/04/22 01:48:20;;;;;;;;;;;10.70;99.90;;;;;;5018877;28;19925;-87
2023/04/22 01:50:46;;;;;;;;;;;10.70;99.90;;;;;;5009901;28;19933;-87
2023/04/22 01:53:21;;;;;;;;;;;12.30;99.90;;;;;;4999860;28;19926;-88
2023/04/22 01:55:46;;;;;;;;;;;10.60;99.90;;;;;;5019316;28;19948;-88
2023/04/22 01:58:12;;;;;;;;;;;10.50;99.90;;;;;;5006521;28;20018;-88
2023/04/22 02:00:46;;;;;;;;;;;10.50;99.90;;;;;;5012754;28;19932;-87
2023/04/22 02:03:12;;;;;;;;;;;10.50;99.90;;;;;;5022226;28;19932;-88
2023/04/22 02:05:38;;;;;;;;;;;10.70;99.90;;;;;;5007126;28;19930;-87
2023/04/22 02:08:04;;;;;;;;;;;10.40;99.90;;;;;;5009731;28;19932;-88
2023/04/22 02:10:30;;;;;;;;;;;10.30;99.90;;;;;;5026549;28;19925;-87
2023/04/22 02:12:56;;;;;;;;;;;10.30;99.90;;;;;;5006409;28;19926;-88
2023/04/22 02:15:27;;;;;;;;;;;10.10;99.90;;;;;;5017574;28;20415;-88
2023/04/22 02:17:53;;;;;;;;;;;10.20;99.90;;;;;;5006434;28;20012;-88
2023/04/22 02:20:19;;;;;;;;;;;10.30;99.90;;;;;;5009563;28;20393;-88
2023/04/22 02:22:47;;;;;;;;;;;10.20;99.90;;;;;;5004720;28;19929;-89
2023/04/22 02:25:15;;;;;;;;;;;10.00;99.90;;;;;;5009121;28;19932;-88
2023/04/22 02:27:41;;;;;;;;;;;10.10;99.90;;;;;;5027490;28;19948;-88
2023/04/22 02:30:10;;;;;;;;;;;10.10;99.90;;;;;;5008715;28;20373;-88
2023/04/22 02:32:37;;;;;;;;;;;11.00;99.90;;;;;;5024136;28;19932;-88
2023/04/22 02:35:04;;;;;;;;;;;10.10;99.90;;;;;;5037881;28;20012;-88
2023/04/22 02:37:32;;;;;;;;;;;10.10;99.90;;;;;;5020958;28;19968;-88
2023/04/22 02:40:00;;;;;;;;;;;10.10;99.90;;;;;;5023228;28;19985;-88
2023/04/22 02:42:26;;;;;;;;;;;10.10;99.90;;;;;;5013897;28;19936;-88
2023/04/22 02:44:54;;;;;;;;;;;10.10;99.90;;;;;;5012973;28;19929;-88
2023/04/22 02:47:20;;;;;;;;;;;10.10;99.90;;;;;;5009633;28;20381;-88
2023/04/22 02:49:49;;;;;;;;;;;10.10;99.90;;;;;;5014929;28;19929;-87
2023/04/22 02:52:17;;;;;;;;;;;9.30;99.90;;;;;;5028646;28;20025;-88
2023/04/22 02:54:43;;;;;;;;;;;11.00;99.90;;;;;;5012919;28;19979;-88
2023/04/22 02:57:08;;;;;;;;;;;9.90;99.90;;;;;;5013684;28;19929;-88
2023/04/22 02:59:35;;;;;;;;;;;9.90;99.90;;;;;;5014657;28;19937;-88
2023/04/22 03:02:01;;;;;;;;;;;8.40;99.90;;;;;;5014536;28;19932;-88
2023/04/22 03:04:31;;;;;;;;;;;9.90;99.90;;;;;;4996131;28;20393;-88
2023/04/22 03:06:57;;;;;;;;;;;9.90;99.90;;;;;;5027391;28;19936;-87
2023/04/22 03:09:23;;;;;;;;;;;10.00;99.90;;;;;;5031453;28;19972;-88
2023/04/22 03:11:49;;;;;;;;;;;9.90;99.90;;;;;;5008372;28;19932;-88
2023/04/22 03:14:14;;;;;;;;;;;9.80;99.90;;;;;;5013510;28;20298;-88
2023/04/22 03:16:40;;;;;;;;;;;9.80;99.90;;;;;;5012055;28;19948;-88
2023/04/22 03:19:09;;;;;;;;;;;9.80;99.90;;;;;;5004866;28;20280;-87
2023/04/22 03:21:37;;;;;;;;;;;9.70;99.90;;;;;;5005975;28;20399;-88
2023/04/22 03:24:05;;;;;;;;;;;9.90;99.90;;;;;;5009042;28;20408;-88
2023/04/22 03:26:30;;;;;;;;;;;11.30;99.90;;;;;;5022409;28;19925;-87
2023/04/22 03:29:06;;;;;;;;;;;9.60;99.90;;;;;;5012992;28;19933;-87
2023/04/22 03:31:34;;;;;;;;;;;9.60;99.90;;;;;;5033747;28;19929;-87
2023/04/22 03:34:03;;;;;;;;;;;9.60;99.90;;;;;;5016498;28;19936;-88
2023/04/22 03:44:12;;;;;;;;;;;9.50;99.90;;;;;;5014674;28;19933;-89
2023/04/22 03:46:37;;;;;;;;;;;9.30;99.90;;;;;;4997243;28;19926;-88
2023/04/22 03:49:03;;;;;;;;;;;9.60;99.90;;;;;;4996443;28;19948;-88
2023/04/22 03:51:29;;;;;;;;;;;9.40;99.90;;;;;;4996764;28;19929;-88
2023/04/22 03:53:57;;;;;;;;;;;9.70;99.90;;;;;;5009212;28;19929;-88
2023/04/22 03:56:23;;;;;;;;;;;9.30;99.90;;;;;;5018437;28;20324;-88
2023/04/22 03:58:49;;;;;;;;;;;9.30;99.90;;;;;;5004799;28;19925;-88
2023/04/22 04:01:15;;;;;;;;;;;9.30;99.90;;;;;;4980336;28;19965;-88
2023/04/22 04:03:40;;;;;;;;;;;9.20;99.90;;;;;;4998862;28;19969;-88
2023/04/22 04:06:06;;;;;;;;;;;9.20;99.90;;;;;;4998102;28;20381;-88
2023/04/22 04:08:37;;;;;;;;;;;9.40;99.90;;;;;;5014855;28;19929;-88
2023/04/22 04:11:03;;;;;;;;;;;9.30;99.90;;;;;;5024581;28;19978;-88
2023/04/22 04:13:31;;;;;;;;;;;9.20;99.90;;;;;;4998334;28;20013;-87
2023/04/22 04:16:01;;;;;;;;;;;9.10;99.90;;;;;;4993694;28;20246;-89
2023/04/22 04:18:28;;;;;;;;;;;9.50;99.90;;;;;;5005871;28;20323;-88
2023/04/22 04:20:54;;;;;;;;;;;8.40;99.90;;;;;;4998101;28;19932;-89
2023/04/22 04:23:23;;;;;;;;;;;9.00;99.90;;;;;;4998451;28;19929;-88
2023/04/22 04:25:48;;;;;;;;;;;9.10;99.90;;;;;;5014681;28;19925;-87
2023/04/22 04:28:16;;;;;;;;;;;9.10;99.90;;;;;;4997624;28;19949;-88
2023/04/22 04:30:42;;;;;;;;;;;9.30;99.90;;;;;;4997832;28;20382;-88
2023/04/22 04:33:08;;;;;;;;;;;9.10;99.90;;;;;;4994324;28;19976;-87
2023/04/22 04:35:37;;;;;;;;;;;9.00;99.90;;;;;;4998425;28;19956;-88
2023/04/22 04:38:04;;;;;;;;;;;9.10;99.90;;;;;;4997489;28;19925;-88
2023/04/22 04:40:32;;;;;;;;;;;9.10;99.90;;;;;;4998387;28;19932;-88
2023/04/22 04:43:01;;;;;;;;;;;9.00;99.90;;;;;;4996428;28;20013;-87
2023/04/22 04:45:27;;;;;;;;;;;9.00;99.90;;;;;;4997629;28;19933;-88
2023/04/22 04:47:53;;;;;;;;;;;9.00;99.90;;;;;;4997410;28;20036;-88
2023/04/22 04:50:19;;;;;;;;;;;9.00;99.90;;;;;;4997404;28;20043;-88
2023/04/22 04:52:48;;;;;;;;;;;9.10;99.90;;;;;;4997675;28;20016;-88
2023/04/22 04:55:14;;;;;;;;;;;9.30;99.90;;;;;;5013784;28;19925;-87
2023/04/22 04:57:40;;;;;;;;;;;9.20;99.90;;;;;;5027358;28;19980;-88
2023/04/22 05:00:07;;;;;;;;;;;9.20;99.90;;;;;;5013760;28;19929;-88
2023/04/22 05:02:32;;;;;;;;;;;9.20;99.90;;;;;;4997153;28;19991;-87
2023/04/22 05:05:04;;;;;;;;;;;9.30;99.90;;;;;;4980039;28;19929;-89
2023/04/22 05:07:32;;;;;;;;;;;11.20;99.90;;;;;;4995937;28;20009;-88
2023/04/22 05:09:58;;;;;;;;;;;9.30;99.90;;;;;;4997427;28;19925;-89
2023/04/22 05:12:23;;;;;;;;;;;9.40;99.90;;;;;;4994894;28;20282;-87
2023/04/22 05:14:49;;;;;;;;;;;9.40;99.90;;;;;;4996755;28;20052;-89
2023/04/22 05:17:19;;;;;;;;;;;9.40;99.90;;;;;;4977464;28;19949;-89
2023/04/22 05:19:45;;;;;;;;;;;9.60;99.90;;;;;;5008909;28;19979;-88
2023/04/22 05:22:13;;;;;;;;;;;9.50;99.90;;;;;;4994034;28;20341;-88
2023/04/22 05:24:39;;;;;;;;;;;9.60;99.90;;;;;;4997042;28;19936;-88
2023/04/22 05:27:08;;;;;;;;;;;9.50;99.90;;;;;;4996832;28;19925;-88
2023/04/22 05:29:34;;;;;;;;;;;9.80;99.90;;;;;;4996874;28;20035;-88
2023/04/22 05:31:59;;;;;;;;;;;9.80;99.90;;;;;;4996396;28;20427;-89
2023/04/22 05:34:25;;;;;;;;;;;9.80;99.90;;;;;;4997056;28;19934;-88
2023/04/22 05:36:54;;;;;;;;;;;9.60;99.90;;;;;;4996540;28;19932;-88
2023/04/22 05:39:20;;;;;;;;;;;9.80;99.90;;;;;;4994154;28;20021;-89
2023/04/22 05:41:53;;;;;;;;;;;9.70;99.90;;;;;;5007654;28;19926;-88
2023/04/22 05:44:19;;;;;;;;;;;9.70;99.90;;;;;;5018128;28;19941;-88
2023/04/22 05:46:45;;;;;;;;;;;10.70;99.90;;;;;;4980890;28;19952;-89
2023/04/22 05:49:14;;;;;;;;;;;9.90;99.90;;;;;;5014544;28;19933;-89
2023/04/22 05:51:43;;;;;;;;;;;9.80;99.90;;;;;;4997443;28;19925;-88
2023/04/22 05:54:17;;;;;;;;;;;10.00;99.90;;;;;;4996861;28;19961;-89
2023/04/22 05:56:43;;;;;;;;;;;10.00;99.90;;;;;;4988054;28;19925;-89
2023/04/22 05:59:16;;;;;;;;;;;10.00;99.90;;;;;;4999263;28;19983;-88
2023/04/22 06:01:42;;;;;;;;;;;10.00;99.90;;;;;;4996789;28;19926;-88
2023/04/22 06:04:08;;;;;;;;;;;9.40;99.90;;;;;;4995613;28;20309;-88
2023/04/22 06:06:34;;;;;;;;;;;10.20;99.90;;;;;;4992997;28;19930;-88
2023/04/22 06:09:00;;;;;;;;;;;10.10;99.90;;;;;;4998079;28;19926;-88
2023/04/22 06:11:27;;;;;;;;;;;10.10;99.90;;;;;;4996553;28;19937;-89
2023/04/22 06:13:55;;;;;;;;;;;11.80;99.90;;;;;;4996981;28;20032;-88
2023/04/22 06:16:21;;;;;;;;;;;10.10;99.90;;;;;;5006218;28;19972;-88
2023/04/22 06:18:46;;;;;;;;;;;10.20;99.90;;;;;;4993978;28;20343;-87
2023/04/22 06:21:32;;;;;;;;;;;8.90;99.90;;;;;;5007800;28;19969;-89
2023/04/22 06:24:01;;;;;;;;;;;10.20;99.90;;;;;;5001257;28;19924;-87
2023/04/22 06:26:30;;;;;;;;;;;9.00;99.90;;;;;;5018382;28;19925;-88
2023/04/22 06:28:55;;;;;;;;;;;10.00;99.90;;;;;;5008483;28;19925;-87
2023/04/22 06:31:21;;;;;;;;;;;9.40;99.90;;;;;;4994938;28;19925;-88
2023/04/22 06:33:47;;;;;;;;;;;10.40;99.90;;;;;;5012994;28;20020;-87
2023/04/22 06:36:13;;;;;;;;;;;10.40;99.90;;;;;;4980235;28;19937;-87
2023/04/22 06:38:38;;;;;;;;;;;10.50;99.90;;;;;;5012576;28;19926;-87
2023/04/22 06:41:07;;;;;;;;;;;10.50;99.90;;;;;;4992793;28;20289;-87
2023/04/22 06:43:33;;;;;;;;;;;10.60;99.90;;;;;;4995941;28;19929;-87
2023/04/22 06:45:58;;;;;;;;;;;10.40;99.90;;;;;;5006798;28;19925;-88
2023/04/22 06:48:26;;;;;;;;;;;10.80;99.90;;;;;;5012816;28;19926;-88
2023/04/22 06:50:51;;;;;;;;;;;10.50;99.90;;;;;;4996380;28;19948;-88
2023/04/22 06:53:19;;;;;;;;;;;10.90;99.90;;;;;;5005166;28;19951;-87
2023/04/22 06:55:47;;;;;;;;;;;9.60;99.90;;;;;;4996256;28;19925;-88
2023/04/22 06:58:15;;;;;;;;;;;11.00;99.90;;;;;;4995932;28;20318;-88
2023/04/22 07:00:41;;;;;;;;;;;11.10;99.90;;;;;;4977276;28;20239;-87
2023/04/22 07:03:07;;;;;;;;;;;9.60;99.90;;;;;;5012007;28;19994;-87
2023/04/22 07:05:35;;;;;;;;;;;10.50;99.90;;;;;;4995092;28;20044;-87
2023/04/22 07:08:00;;;;;;;;;;;11.40;99.90;;;;;;4985384;28;20302;-87
2023/04/22 07:10:26;;;;;;;;;;;11.40;99.90;;;;;;5009525;28;20002;-87
2023/04/22 07:12:52;;;;;;;;;;;11.40;99.90;;;;;;4990199;28;19952;-87
2023/04/22 07:15:20;;;;;;;;;;;11.70;99.90;;;;;;4991294;28;19933;-87
2023/04/22 07:17:45;;;;;;;;;;;11.50;99.90;;;;;;5011133;28;19999;-87
2023/04/22 07:20:11;;;;;;;;;;;11.60;99.90;;;;;;5007810;28;20030;-87
2023/04/22 07:22:37;;;;;;;;;;;11.80;99.90;;;;;;4994028;28;20391;-86
2023/04/22 07:25:06;;;;;;;;;;;11.70;99.90;;;;;;5009051;28;19929;-86
2023/04/22 07:27:31;;;;;;;;;;;11.70;99.90;;;;;;4988472;28;20024;-86
2023/04/22 07:30:00;;;;;;;;;;;11.90;99.90;;;;;;4992034;28;19926;-86
2023/04/22 07:32:26;;;;;;;;;;;11.90;99.90;;;;;;4990395;28;19930;-86
2023/04/22 07:34:51;;;;;;;;;;;11.90;99.90;;;;;;4992547;28;20352;-87
2023/04/22 07:37:17;;;;;;;;;;;12.00;99.90;;;;;;5011454;28;19945;-86
2023/04/22 07:39:43;;;;;;;;;;;12.10;99.90;;;;;;5011244;28;19932;-87
2023/04/22 07:42:11;;;;;;;;;;;12.10;99.90;;;;;;4992859;28;19972;-87
2023/04/22 07:44:37;;;;;;;;;;;12.20;99.90;;;;;;5006622;28;19930;-87
2023/04/22 07:47:03;;;;;;;;;;;12.00;99.90;;;;;;4988580;28;20281;-86
2023/04/22 07:49:29;;;;;;;;;;;12.40;99.90;;;;;;4989019;28;20008;-87
2023/04/22 07:51:55;;;;;;;;;;;12.70;99.90;;;;;;4991582;28;20342;-87
2023/04/22 07:54:21;;;;;;;;;;;12.60;99.90;;;;;;4984863;28;19926;-87
2023/04/22 07:56:46;;;;;;;;;;;12.70;99.90;;;;;;4995035;28;19925;-86
2023/04/22 07:59:14;;;;;;;;;;;12.80;99.90;;;;;;4987102;28;19972;-86
2023/04/22 08:01:40;;;;;;;;;;;12.90;99.90;;;;;;4994958;28;19925;-87
2023/04/22 08:04:06;;;;;;;;;;;13.00;99.90;;;;;;4995987;28;19926;-87
2023/04/22 08:06:32;;;;;;;;;;;13.10;99.90;;;;;;4994524;28;20488;-87
2023/04/22 08:08:58;;;;;;;;;;;13.20;99.90;;;;;;4995702;28;19980;-86
2023/04/22 08:11:26;;;;;;;;;;;13.20;99.90;;;;;;5011569;28;19926;-87
2023/04/22 08:13:54;;;;;;;;;;;13.30;99.90;;;;;;5014802;28;20325;-88
2023/04/22 08:16:20;;;;;;;;;;;13.40;99.90;;;;;;4994285;28;19932;-86
2023/04/22 08:18:46;;;;;;;;;;;13.50;99.90;;;;;;4999150;28;19925;-86
2023/04/22 08:21:14;;;;;;;;;;;13.50;99.90;;;;;;5015254;28;19925;-87
2023/04/22 08:23:40;;;;;;;;;;;13.80;99.90;;;;;;4999081;28;19972;-85
2023/04/22 08:26:07;;;;;;;;;;;13.90;99.90;;;;;;4996045;28;19933;-87
2023/04/22 08:28:33;;;;;;;;;;;13.80;99.90;;;;;;4999062;28;19979;-86
2023/04/22 08:30:59;;;;;;;;;;;13.90;99.90;;;;;;4997790;28;19930;-87
2023/04/22 08:33:24;;;;;;;;;;;13.90;99.90;;;;;;4997406;28;19926;-86
2023/04/22 08:35:52;;;;;;;;;;;12.70;99.90;;;;;;4980234;28;19925;-86
2023/04/22 08:38:21;;;;;;;;;;;14.10;99.90;;;;;;4993377;28;19926;-86
2023/04/22 08:40:46;;;;;;;;;;;13.90;99.90;;;;;;5006182;28;19929;-86
2023/04/22 08:43:12;;;;;;;;;;;14.00;99.90;;;;;;4998163;28;19929;-86
2023/04/22 08:45:39;;;;;;;;;;;14.10;99.90;;;;;;5014326;28;19933;-87
2023/04/22 08:48:06;;;;;;;;;;;14.20;99.90;;;;;;4997920;28;19926;-86
2023/04/22 08:50:35;;;;;;;;;;;14.30;99.90;;;;;;5014770;28;20012;-86
2023/04/22 08:53:01;;;;;;;;;;;13.20;99.90;;;;;;4998388;28;20015;-86
2023/04/22 08:55:27;;;;;;;;;;;14.60;99.90;;;;;;5014342;28;19979;-86
2023/04/22 08:57:53;;;;;;;;;;;14.70;99.90;;;;;;4990992;28;19930;-86
2023/04/22 09:00:18;;;;;;;;;;;14.80;99.90;;;;;;4998121;28;19925;-87
2023/04/22 09:02:45;;;;;;;;;;;14.80;99.90;;;;;;5013926;28;19947;-87
2023/04/22 09:05:13;;;;;;;;;;;14.80;99.90;;;;;;5014682;28;19932;-86
2023/04/22 09:07:39;;;;;;;;;;;14.90;99.90;;;;;;5007836;28;19933;-87
2023/04/22 09:10:07;;;;;;;;;;;15.00;99.90;;;;;;4997622;28;19925;-87
2023/04/22 09:12:32;;;;;;;;;;;15.00;99.90;;;;;;5030604;28;19930;-87
2023/04/22 09:14:58;;;;;;;;;;;15.10;99.90;;;;;;4996926;28;19987;-85
2023/04/22 09:17:31;;;;;;;;;;;15.10;99.90;;;;;;5012759;28;19926;-87
2023/04/22 09:20:00;;;;;;;;;;;15.20;99.90;;;;;;5014272;28;19933;-86
2023/04/22 09:22:36;;;;;;;;;;;15.30;99.90;;;;;;4997912;28;19983;-86
2023/04/22 09:25:05;;;;;;;;;;;15.40;99.90;;;;;;4993540;28;19926;-86
2023/04/22 09:27:32;;;;;;;;;;;15.40;99.90;;;;;;5012412;28;20384;-87
2023/04/22 09:29:58;;;;;;;;;;;15.60;99.90;;;;;;5012046;28;19925;-86
2023/04/22 09:32:24;;;;;;;;;;;15.80;99.90;;;;;;4996366;28;19955;-86
2023/04/22 09:34:51;;;;;;;;;;;16.00;99.90;;;;;;5008089;28;20412;-86
2023/04/22 09:37:22;;;;;;;;;;;15.90;99.90;;;;;;5021156;28;19929;-87
2023/04/22 09:39:48;;;;;;;;;;;16.00;99.90;;;;;;5013693;28;19941;-87
2023/04/22 09:42:15;;;;;;;;;;;16.20;99.90;;;;;;4997107;28;19976;-86
2023/04/22 09:44:41;;;;;;;;;;;16.30;99.90;;;;;;5013409;28;19926;-85
2023/04/22 09:47:09;;;;;;;;;;;16.40;99.90;;;;;;4996674;28;19983;-86
2023/04/22 09:49:38;;;;;;;;;;;16.50;99.90;;;;;;4985145;28;19925;-86
2023/04/22 09:52:04;;;;;;;;;;;16.70;99.90;;;;;;4997085;28;19932;-86
2023/04/22 09:54:29;;;;;;;;;;;16.90;99.90;;;;;;4996915;28;19926;-86
2023/04/22 09:56:55;;;;;;;;;;;17.10;99.90;;;;;;4997055;28;19948;-87
2023/04/22 09:59:25;;;;;;;;;;;17.20;99.90;;;;;;4996966;28;20079;-86
2023/04/22 10:01:52;;;;;;;;;;;17.40;99.90;;;;;;5008431;28;19925;-86
2023/04/22 10:04:24;;;;;;;;;;;17.50;99.90;;;;;;5013458;28;19925;-88
2023/04/22 10:06:53;;;;;;;;;;;17.60;99.90;;;;;;4993229;28;19960;-87
2023/04/22 10:09:20;;;;;;;;;;;17.80;99.90;;;;;;5012119;28;19933;-89
2023/04/22 10:11:46;;;;;;;;;;;17.80;99.90;;;;;;5013423;28;19975;-87
2023/04/22 10:14:15;;;;;;;;;;;17.80;99.90;;;;;;4993417;28;19973;-88
2023/04/22 10:16:43;;;;;;;;;;;17.10;99.90;;;;;;5000392;28;20293;-87
2023/04/22 10:19:12;;;;;;;;;;;17.80;99.90;;;;;;5007351;28;19932;-87
2023/04/22 10:21:40;;;;;;;;;;;17.80;99.90;;;;;;5024996;28;19926;-87
2023/04/22 10:24:16;;;;;;;;;;;17.90;99.90;;;;;;5024290;28;19936;-87
2023/04/22 10:26:49;;;;;;;;;;;18.00;99.90;;;;;;5004584;28;19929;-87
2023/04/22 10:29:16;;;;;;;;;;;18.00;99.90;;;;;;5031819;28;20304;-88
2023/04/22 10:31:43;;;;;;;;;;;18.20;99.90;;;;;;5011037;28;19952;-87
2023/04/22 10:34:13;;;;;;;;;;;18.20;99.90;;;;;;4998264;28;19936;-87
2023/04/22 10:37:13;;;;;;;;;;;18.20;99.90;;;;;;5002777;28;19980;-87
2023/04/22 10:39:40;;;;;;;;;;;18.40;99.90;;;;;;4956487;28;19949;-87
2023/04/22 10:42:10;;;;;;;;;;;18.60;99.90;;;;;;4996076;28;20254;-87
2023/04/22 10:44:49;;;;;;;;;;;18.50;99.90;;;;;;5011890;28;19935;-87
2023/04/22 10:47:35;;;;;;;;;;;18.50;99.90;;;;;;4995416;28;20347;-87
2023/04/22 10:50:11;;;;;;;;;;;18.60;99.90;;;;;;5009364;28;19926;-87
2023/04/22 10:52:37;;;;;;;;;;;18.70;99.90;;;;;;4996014;28;20032;-88
2023/04/22 10:55:03;;;;;;;;;;;18.80;99.90;;;;;;5011753;28;20012;-87
2023/04/22 10:57:36;;;;;;;;;;;18.90;99.90;;;;;;4996236;28;19948;-87
2023/04/22 11:00:22;;;;;;;;;;;19.00;99.90;;;;;;4994362;28;21122;-87
2023/04/22 11:03:06;;;;;;;;;;;18.90;99.90;;;;;;4986305;28;19955;-88
2023/04/22 11:05:34;;;;;;;;;;;18.30;99.90;;;;;;5002974;28;19940;-89
2023/04/22 11:08:22;;;;;;;;;;;;;;;;;;;;;
2023/04/22 11:10:49;;;;;;;;;;;19.20;99.90;;;;;;5008556;28;19929;-87
2023/04/22 11:13:16;;;;;;;;;;;19.40;99.90;;;;;;5000715;28;19925;-88
2023/04/22 11:15:44;;;;;;;;;;;19.30;99.90;;;;;;5008075;28;20347;-87
2023/04/22 11:18:17;;;;;;;;;;;19.30;99.90;;;;;;4994991;28;19930;-87
2023/04/22 11:20:43;;;;;;;;;;;19.50;99.90;;;;;;5016588;28;19936;-87
2023/04/22 11:23:09;;;;;;;;;;;19.30;99.90;;;;;;4976040;28;19927;-88
2023/04/22 11:25:37;;;;;;;;;;;19.80;99.90;;;;;;5010306;28;19933;-88
2023/04/22 11:28:03;;;;;;;;;;;19.90;99.90;;;;;;4995017;28;19944;-88
2023/04/22 11:30:30;;;;;;;;;;;19.90;99.90;;;;;;5008648;28;19926;-87
2023/04/22 11:32:58;;;;;;;;;;;19.90;99.90;;;;;;4993872;28;19925;-88
2023/04/22 11:35:25;;;;;;;;;;;20.10;99.90;;;;;;4977301;28;20407;-87
2023/04/22 11:37:55;;;;;;;;;;;20.00;99.90;;;;;;4994259;28;19926;-87
2023/04/22 11:40:25;;;;;;;;;;;20.00;99.90;;;;;;5003700;28;19925;-88
2023/04/22 11:42:54;;;;;;;;;;;20.00;99.90;;;;;;4992025;28;19926;-88
2023/04/22 11:45:20;;;;;;;;;;;20.00;99.90;;;;;;4994868;28;19926;-87
2023/04/22 11:47:45;;;;;;;;;;;19.80;99.90;;;;;;4994359;28;20016;-89
2023/04/22 11:50:15;;;;;;;;;;;20.20;99.90;;;;;;5011037;28;20027;-88
2023/04/22 11:53:00;;;;;;;;;;;20.20;99.90;;;;;;4976723;28;20071;-88
2023/04/22 11:55:33;;;;;;;;;;;20.30;99.90;;;;;;4998844;28;19980;-88
2023/04/22 11:58:01;;;;;;;;;;;20.30;99.90;;;;;;4992938;28;20405;-88
2023/04/22 12:00:32;;;;;;;;;;;20.50;99.90;;;;;;5015105;28;19932;-87
2023/04/22 12:03:12;;;;;;;;;;;20.70;99.90;;;;;;5020590;28;19948;-87
2023/04/22 12:05:50;;;;;;;;;;;20.90;99.90;;;;;;5015453;28;19936;-88
2023/04/22 12:08:17;;;;;;;;;;;20.90;99.90;;;;;;5007057;28;19930;-88
2023/04/22 12:10:59;;;;;;;;;;;20.90;99.90;;;;;;5006226;28;19968;-88
2023/04/22 12:13:28;;;;;;;;;;;20.90;99.90;;;;;;4998783;28;20002;-88
2023/04/22 12:15:55;;;;;;;;;;;20.80;99.90;;;;;;5009378;28;19980;-89
2023/04/22 12:18:47;;;;;;;;;;;20.80;99.90;;;;;;4990440;28;19933;-88
2023/04/22 12:21:13;;;;;;;;;;;20.70;99.50;;;;;;4989385;28;19933;-89
2023/04/22 12:23:47;;;;;;;;;;;20.50;99.90;;;;;;4998340;28;20024;-90
2023/04/22 12:26:15;;;;;;;;;;;20.50;99.90;;;;;;4997991;28;19945;-88
2023/04/22 12:28:41;;;;;;;;;;;20.40;99.90;;;;;;5014920;28;19971;-90
2023/04/22 12:31:16;;;;;;;;;;;20.30;99.90;;;;;;5004551;28;19925;-91
2023/04/22 12:33:43;;;;;;;;;;;20.20;99.90;;;;;;4996091;28;20289;-88
2023/04/22 12:36:09;;;;;;;;;;;20.10;99.90;;;;;;5014342;28;19929;-88
2023/04/22 12:38:35;;;;;;;;;;;20.10;99.90;;;;;;4998354;28;20084;-88
2023/04/22 12:41:03;;;;;;;;;;;20.00;99.90;;;;;;5009657;28;19979;-86
2023/04/22 12:43:31;;;;;;;;;;;20.10;99.90;;;;;;4974084;28;19925;-86
2023/04/22 12:45:57;;;;;;;;;;;19.40;99.90;;;;;;5010552;28;20019;-87
2023/04/22 12:48:26;;;;;;;;;;;20.30;99.90;;;;;;5000724;28;19929;-88
2023/04/22 12:50:51;;;;;;;;;;;20.40;99.90;;;;;;4997835;28;19925;-86
2023/04/22 12:53:20;;;;;;;;;;;20.40;99.90;;;;;;4997908;28;19932;-89
2023/04/22 12:55:47;;;;;;;;;;;20.30;99.90;;;;;;4997439;28;19929;-87
2023/04/22 12:58:15;;;;;;;;;;;20.20;99.90;;;;;;5014212;28;19929;-88
2023/04/22 13:00:40;;;;;;;;;;;20.20;99.90;;;;;;4997172;28;19934;-88
2023/04/22 13:03:06;;;;;;;;;;;20.30;99.90;;;;;;5013443;28;20380;-87
2023/04/22 13:05:32;;;;;;;;;;;20.20;99.90;;;;;;4979430;28;19937;-89
2023/04/22 13:07:58;;;;;;;;;;;20.30;99.90;;;;;;4994709;28;19971;-91
2023/04/22 13:10:26;;;;;;;;;;;20.20;99.90;;;;;;5011022;28;19929;-88
2023/04/22 13:12:52;;;;;;;;;;;20.30;99.90;;;;;;4992007;28;19979;-87
2023/04/22 13:15:19;;;;;;;;;;;20.20;99.90;;;;;;4996054;28;19968;-88
2023/04/22 13:17:44;;;;;;;;;;;20.20;99.90;;;;;;4996833;28;19936;-88
2023/04/22 13:20:12;;;;;;;;;;;20.30;99.90;;;;;;4981467;28;20309;-88
2023/04/22 13:22:42;;;;;;;;;;;20.30;99.90;;;;;;4973174;28;19964;-88
2023/04/22 13:25:08;;;;;;;;;;;20.30;99.90;;;;;;4978103;28;19952;-88
2023/04/22 13:27:34;;;;;;;;;;;20.30;99.90;;;;;;4999825;28;19925;-89
2023/04/22 13:29:59;;;;;;;;;;;20.00;99.90;;;;;;4996502;28;19941;-89
2023/04/22 13:32:25;;;;;;;;;;;20.20;99.90;;;;;;5014774;28;19952;-87
2023/04/22 13:34:51;;;;;;;;;;;20.20;99.90;;;;;;4981600;28;20036;-89
2023/04/22 13:37:20;;;;;;;;;;;20.70;99.90;;;;;;5012687;28;20293;-87
2023/04/22 13:39:46;;;;;;;;;;;20.10;99.90;;;;;;4995025;28;19926;-90
2023/04/22 13:42:11;;;;;;;;;;;20.00;99.90;;;;;;5002801;28;20016;-88
2023/04/22 13:44:37;;;;;;;;;;;19.90;99.90;;;;;;4996479;28;19933;-87
2023/04/22 13:47:03;;;;;;;;;;;19.80;99.90;;;;;;4996297;28;19929;-87
2023/04/22 13:49:28;;;;;;;;;;;19.70;99.90;;;;;;5013211;28;19926;-88
2023/04/22 13:51:56;;;;;;;;;;;19.60;99.90;;;;;;5020044;28;19952;-89
2023/04/22 13:54:24;;;;;;;;;;;19.60;99.90;;;;;;4997101;28;20387;-87
2023/04/22 13:56:58;;;;;;;;;;;19.40;99.90;;;;;;5013644;28;19965;-89
2023/04/22 13:59:27;;;;;;;;;;;19.50;99.90;;;;;;4996047;28;20004;-90
2023/04/22 14:02:00;;;;;;;;;;;19.50;99.90;;;;;;4996540;28;20323;-91
2023/04/22 14:04:25;;;;;;;;;;;19.50;99.90;;;;;;4984928;28;19929;-90
2023/04/22 14:06:56;;;;;;;;;;;19.40;99.90;;;;;;4973945;28;19979;-90
2023/04/22 14:09:25;;;;;;;;;;;20.00;99.90;;;;;;4997328;28;19929;-89
2023/04/22 14:11:53;;;;;;;;;;;19.50;99.90;;;;;;5008051;28;19926;-91
2023/04/22 14:14:31;;;;;;;;;;;19.40;99.90;;;;;;5000512;28;19926;-90
2023/04/22 14:16:57;;;;;;;;;;;19.30;99.90;;;;;;5011969;28;19913;-88
2023/04/22 14:19:23;;;;;;;;;;;19.10;99.90;;;;;;5010607;28;19930;-88
2023/04/22 14:21:49;;;;;;;;;;;19.00;99.90;;;;;;5011931;28;20016;-87
2023/04/22 14:24:15;;;;;;;;;;;18.90;99.90;;;;;;5006768;28;19977;-88
2023/04/22 14:26:43;;;;;;;;;;;18.80;99.90;;;;;;5027214;28;20725;-88
2023/04/22 14:29:08;;;;;;;;;;;18.70;99.90;;;;;;4998738;28;20059;-88
2023/04/22 14:31:34;;;;;;;;;;;18.50;99.90;;;;;;4995903;28;19984;-88
2023/04/22 14:34:00;;;;;;;;;;;19.30;99.90;;;;;;4993200;28;19953;-88